sensor_id;sensor_type;location;lat;lon;timestamp;temperature;humidity
19397;DHT22;9834;48.076;11.878;2023-02-01T00:01:29;3.70;99.60
19397;DHT22;9834;48.076;11.878;2023-02-01T00:03:56;3.70;99.90
19397;DHT22;9834;48.076;11.878;2023-02-01T00:06:24;3.60;99.90
19397;DHT22;9834;48.076;11.878;2023-02-01T00:08:52;3.70;99.90
19397;DHT22;9834;48.076;11.878;2023-02-01T00:11:21;3.60;99.90
19397;DHT22;9834;48.076;11.878;2023-02-01T00:13:50;3.60;99.90
19397;DHT22;9834;48.076;11.878;2023-02-01T00:16:18;3.60;99.90
19397;DHT22;9834;48.076;11.878;2023-02-01T00:18:47;3.60;99.90
19397;DHT22;9834;48.076;11.878;2023-02-01T00:21:15;3.70;99.90
19397;DHT22;9834;48.076;11.878;2023-02-01T00:23:46;3.70;99.60
19397;DHT22;9834;48.076;11.878;2023-02-01T00:26:15;3.70;99.60
19397;DHT22;9834;48.076;11.878;2023-02-01T00:28:43;3.70;99.20
19397;DHT22;9834;48.076;11.878;2023-02-01T00:31:11;3.80;99.10
19397;DHT22;9834;48.076;11.878;2023-02-01T00:33:38;3.80;98.90
19397;DHT22;9834;48.076;11.878;2023-02-01T00:36:07;3.80;98.30
19397;DHT22;9834;48.076;11.878;2023-02-01T00:38:37;3.80;98.30
19397;DHT22;9834;48.076;11.878;2023-02-01T00:41:07;3.70;98.30
19397;DHT22;9834;48.076;11.878;2023-02-01T00:43:34;3.80;98.30
19397;DHT22;9834;48.076;11.878;2023-02-01T00:46:02;3.80;98.00
19397;DHT22;9834;48.076;11.878;2023-02-01T00:48:29;3.80;98.00
19397;DHT22;9834;48.076;11.878;2023-02-01T00:50:59;3.80;97.60
19397;DHT22;9834;48.076;11.878;2023-02-01T00:53:26;3.80;97.40
19397;DHT22;9834;48.076;11.878;2023-02-01T00:55:53;3.80;97.40
19397;DHT22;9834;48.076;11.878;2023-02-01T00:58:23;3.80;97.60
19397;DHT22;9834;48.076;11.878;2023-02-01T01:01:01;3.80;97.40
19397;DHT22;9834;48.076;11.878;2023-02-01T01:03:28;3.80;97.40
19397;DHT22;9834;48.076;11.878;2023-02-01T01:05:59;4.00;97.40
19397;DHT22;9834;48.076;11.878;2023-02-01T01:08:28;3.80;97.80
19397;DHT22;9834;48.076;11.878;2023-02-01T01:10:55;3.60;99.90
19397;DHT22;9834;48.076;11.878;2023-02-01T01:13:24;3.50;99.90
19397;DHT22;9834;48.076;11.878;2023-02-01T01:15:51;3.30;99.90
19397;DHT22;9834;48.076;11.878;2023-02-01T01:18:18;2.90;99.90
19397;DHT22;9834;48.076;11.878;2023-02-01T01:20:45;2.80;99.90
19397;DHT22;9834;48.076;11.878;2023-02-01T01:23:14;2.80;99.90
19397;DHT22;9834;48.076;11.878;2023-02-01T01:25:41;2.50;99.90
19397;DHT22;9834;48.076;11.878;2023-02-01T01:28:08;2.40;99.90
19397;DHT22;9834;48.076;11.878;2023-02-01T01:30:37;2.30;99.90
19397;DHT22;9834;48.076;11.878;2023-02-01T01:33:03;2.30;99.90
19397;DHT22;9834;48.076;11.878;2023-02-01T01:35:31;2.30;99.90
19397;DHT22;9834;48.076;11.878;2023-02-01T01:38:01;2.30;99.90
19397;DHT22;9834;48.076;11.878;2023-02-01T01:40:29;2.20;99.90
19397;DHT22;9834;48.076;11.878;2023-02-01T01:42:57;2.20;99.90
19397;DHT22;9834;48.076;11.878;2023-02-01T01:45:26;2.20;99.90
19397;DHT22;9834;48.076;11.878;2023-02-01T01:47:57;2.30;99.90
19397;DHT22;9834;48.076;11.878;2023-02-01T01:50:29;2.20;99.90
19397;DHT22;9834;48.076;11.878;2023-02-01T01:53:00;2.40;99.90
19397;DHT22;9834;48.076;11.878;2023-02-01T01:55:32;2.30;99.90
19397;DHT22;9834;48.076;11.878;2023-02-01T01:58:03;2.30;99.90
19397;DHT22;9834;48.076;11.878;2023-02-01T02:00:32;2.40;99.90
19397;DHT22;9834;48.076;11.878;2023-02-01T02:03:07;2.50;99.90
19397;DHT22;9834;48.076;11.878;2023-02-01T02:05:36;2.50;99.90
19397;DHT22;9834;48.076;11.878;2023-02-01T02:08:03;2.50;99.90
19397;DHT22;9834;48.076;11.878;2023-02-01T02:10:31;2.50;99.90
19397;DHT22;9834;48.076;11.878;2023-02-01T02:13:13;2.60;99.90
19397;DHT22;9834;48.076;11.878;2023-02-01T02:15:45;2.60;99.90
19397;DHT22;9834;48.076;11.878;2023-02-01T02:18:19;2.60;99.90
19397;DHT22;9834;48.076;11.878;2023-02-01T02:21:09;2.60;99.90
19397;DHT22;9834;48.076;11.878;2023-02-01T02:24:00;2.60;99.90
19397;DHT22;9834;48.076;11.878;2023-02-01T02:26:35;2.70;99.90
19397;DHT22;9834;48.076;11.878;2023-02-01T02:32:41;2.60;99.90
19397;DHT22;9834;48.076;11.878;2023-02-01T02:35:22;2.70;99.90
19397;DHT22;9834;48.076;11.878;2023-02-01T02:37:57;2.70;99.90
19397;DHT22;9834;48.076;11.878;2023-02-01T02:40:32;2.70;99.90
19397;DHT22;9834;48.076;11.878;2023-02-01T02:43:06;2.70;99.90
19397;DHT22;9834;48.076;11.878;2023-02-01T02:45:58;2.70;99.90
19397;DHT22;9834;48.076;11.878;2023-02-01T02:48:48;2.70;99.90
19397;DHT22;9834;48.076;11.878;2023-02-01T02:51:23;2.70;99.90
19397;DHT22;9834;48.076;11.878;2023-02-01T02:54:12;2.80;99.90
19397;DHT22;9834;48.076;11.878;2023-02-01T02:56:58;2.80;99.90
19397;DHT22;9834;48.076;11.878;2023-02-01T02:59:45;2.90;99.90
19397;DHT22;9834;48.076;11.878;2023-02-01T03:02:30;2.80;99.90
19397;DHT22;9834;48.076;11.878;2023-02-01T03:05:15;2.80;99.90
19397;DHT22;9834;48.076;11.878;2023-02-01T03:08:09;2.90;99.90
19397;DHT22;9834;48.076;11.878;2023-02-01T03:10:47;2.90;99.90
19397;DHT22;9834;48.076;11.878;2023-02-01T03:13:22;2.90;99.90
19397;DHT22;9834;48.076;11.878;2023-02-01T03:15:59;2.90;99.90
19397;DHT22;9834;48.076;11.878;2023-02-01T03:18:32;2.90;99.90
19397;DHT22;9834;48.076;11.878;2023-02-01T03:21:07;2.90;99.90
19397;DHT22;9834;48.076;11.878;2023-02-01T03:23:36;3.00;99.90
19397;DHT22;9834;48.076;11.878;2023-02-01T03:26:07;3.00;99.90
19397;DHT22;9834;48.076;11.878;2023-02-01T03:28:37;3.00;99.90
19397;DHT22;9834;48.076;11.878;2023-02-01T03:31:08;3.10;99.90
19397;DHT22;9834;48.076;11.878;2023-02-01T03:33:36;3.10;99.90
19397;DHT22;9834;48.076;11.878;2023-02-01T03:36:11;3.10;99.90
19397;DHT22;9834;48.076;11.878;2023-02-01T03:38:48;3.20;99.90
19397;DHT22;9834;48.076;11.878;2023-02-01T03:41:20;3.20;99.90
19397;DHT22;9834;48.076;11.878;2023-02-01T03:43:54;3.20;99.90
19397;DHT22;9834;48.076;11.878;2023-02-01T03:46:28;3.20;99.90
19397;DHT22;9834;48.076;11.878;2023-02-01T03:49:02;3.20;99.90
19397;DHT22;9834;48.076;11.878;2023-02-01T03:51:30;3.20;99.90
19397;DHT22;9834;48.076;11.878;2023-02-01T03:54:01;3.20;99.90
19397;DHT22;9834;48.076;11.878;2023-02-01T03:56:30;3.40;99.90
19397;DHT22;9834;48.076;11.878;2023-02-01T03:58:58;3.40;99.90
19397;DHT22;9834;48.076;11.878;2023-02-01T04:01:27;3.40;99.90
19397;DHT22;9834;48.076;11.878;2023-02-01T04:03:55;3.40;99.90
19397;DHT22;9834;48.076;11.878;2023-02-01T04:06:22;3.40;99.90
19397;DHT22;9834;48.076;11.878;2023-02-01T04:08:50;3.40;99.90
19397;DHT22;9834;48.076;11.878;2023-02-01T04:11:21;3.40;99.90
19397;DHT22;9834;48.076;11.878;2023-02-01T04:13:48;3.40;99.90
19397;DHT22;9834;48.076;11.878;2023-02-01T04:16:15;3.70;99.90
19397;DHT22;9834;48.076;11.878;2023-02-01T04:18:42;3.40;99.90
19397;DHT22;9834;48.076;11.878;2023-02-01T04:21:09;3.50;99.90
19397;DHT22;9834;48.076;11.878;2023-02-01T04:23:37;3.40;99.90
19397;DHT22;9834;48.076;11.878;2023-02-01T04:26:04;3.30;99.90
19397;DHT22;9834;48.076;11.878;2023-02-01T04:28:33;3.50;99.90
19397;DHT22;9834;48.076;11.878;2023-02-01T04:31:00;3.40;99.90
19397;DHT22;9834;48.076;11.878;2023-02-01T04:33:27;3.40;99.90
19397;DHT22;9834;48.076;11.878;2023-02-01T04:35:54;3.40;99.90
19397;DHT22;9834;48.076;11.878;2023-02-01T04:38:21;3.40;99.90
19397;DHT22;9834;48.076;11.878;2023-02-01T04:40:48;3.50;99.90
19397;DHT22;9834;48.076;11.878;2023-02-01T04:43:16;3.50;99.90
19397;DHT22;9834;48.076;11.878;2023-02-01T04:45:48;3.50;99.90
19397;DHT22;9834;48.076;11.878;2023-02-01T04:48:15;3.50;99.90
19397;DHT22;9834;48.076;11.878;2023-02-01T04:50:43;3.50;99.90
19397;DHT22;9834;48.076;11.878;2023-02-01T04:53:13;3.60;99.90
19397;DHT22;9834;48.076;11.878;2023-02-01T04:55:40;3.60;99.90
19397;DHT22;9834;48.076;11.878;2023-02-01T04:58:07;3.60;99.90
19397;DHT22;9834;48.076;11.878;2023-02-01T05:00:34;3.60;99.90
19397;DHT22;9834;48.076;11.878;2023-02-01T05:03:02;3.60;99.90
19397;DHT22;9834;48.076;11.878;2023-02-01T05:05:29;3.60;99.90
19397;DHT22;9834;48.076;11.878;2023-02-01T05:07:56;3.60;99.90
19397;DHT22;9834;48.076;11.878;2023-02-01T05:10:23;3.60;99.90
19397;DHT22;9834;48.076;11.878;2023-02-01T05:12:50;3.50;99.90
19397;DHT22;9834;48.076;11.878;2023-02-01T05:15:34;3.50;99.90
19397;DHT22;9834;48.076;11.878;2023-02-01T05:18:03;3.60;99.90
19397;DHT22;9834;48.076;11.878;2023-02-01T05:20:30;3.60;99.90
19397;DHT22;9834;48.076;11.878;2023-02-01T05:22:57;3.60;99.90
19397;DHT22;9834;48.076;11.878;2023-02-01T05:25:24;3.60;99.90
19397;DHT22;9834;48.076;11.878;2023-02-01T05:27:51;3.60;99.90
19397;DHT22;9834;48.076;11.878;2023-02-01T05:30:18;3.60;99.90
19397;DHT22;9834;48.076;11.878;2023-02-01T05:32:45;3.60;99.90
19397;DHT22;9834;48.076;11.878;2023-02-01T05:35:13;3.70;99.90
19397;DHT22;9834;48.076;11.878;2023-02-01T05:37:40;3.60;99.90
19397;DHT22;9834;48.076;11.878;2023-02-01T05:40:08;3.60;99.90
19397;DHT22;9834;48.076;11.878;2023-02-01T05:42:36;3.60;99.90
19397;DHT22;9834;48.076;11.878;2023-02-01T05:45:03;3.60;99.90
19397;DHT22;9834;48.076;11.878;2023-02-01T05:47:33;3.60;99.90
19397;DHT22;9834;48.076;11.878;2023-02-01T05:50:00;3.70;99.90
19397;DHT22;9834;48.076;11.878;2023-02-01T05:52:28;3.60;99.90
19397;DHT22;9834;48.076;11.878;2023-02-01T05:54:55;3.60;99.90
19397;DHT22;9834;48.076;11.878;2023-02-01T05:57:22;3.60;99.90
19397;DHT22;9834;48.076;11.878;2023-02-01T05:59:49;3.50;99.90
19397;DHT22;9834;48.076;11.878;2023-02-01T06:02:16;3.60;99.90
19397;DHT22;9834;48.076;11.878;2023-02-01T06:04:43;3.60;99.90
19397;DHT22;9834;48.076;11.878;2023-02-01T06:07:10;3.60;99.90
19397;DHT22;9834;48.076;11.878;2023-02-01T06:09:38;3.70;99.90
19397;DHT22;9834;48.076;11.878;2023-02-01T06:12:06;3.60;99.90
19397;DHT22;9834;48.076;11.878;2023-02-01T06:14:33;3.60;99.90
19397;DHT22;9834;48.076;11.878;2023-02-01T06:17:00;3.60;99.90
19397;DHT22;9834;48.076;11.878;2023-02-01T06:19:28;3.60;99.90
19397;DHT22;9834;48.076;11.878;2023-02-01T06:21:55;3.60;99.90
19397;DHT22;9834;48.076;11.878;2023-02-01T06:24:23;3.60;99.90
19397;DHT22;9834;48.076;11.878;2023-02-01T06:26:51;3.60;99.90
19397;DHT22;9834;48.076;11.878;2023-02-01T06:29:18;3.60;99.90
19397;DHT22;9834;48.076;11.878;2023-02-01T06:31:45;3.60;99.90
19397;DHT22;9834;48.076;11.878;2023-02-01T06:34:12;3.60;99.90
19397;DHT22;9834;48.076;11.878;2023-02-01T06:36:39;3.60;99.90
19397;DHT22;9834;48.076;11.878;2023-02-01T06:39:05;3.60;99.90
19397;DHT22;9834;48.076;11.878;2023-02-01T06:41:32;3.60;99.90
19397;DHT22;9834;48.076;11.878;2023-02-01T06:44:01;3.60;99.90
19397;DHT22;9834;48.076;11.878;2023-02-01T06:46:30;3.60;99.90
19397;DHT22;9834;48.076;11.878;2023-02-01T06:48:57;3.60;99.90
19397;DHT22;9834;48.076;11.878;2023-02-01T06:51:25;3.60;99.90
19397;DHT22;9834;48.076;11.878;2023-02-01T06:53:54;3.60;99.90
19397;DHT22;9834;48.076;11.878;2023-02-01T06:56:21;3.60;99.90
19397;DHT22;9834;48.076;11.878;2023-02-01T06:58:48;3.60;99.90
19397;DHT22;9834;48.076;11.878;2023-02-01T07:01:17;3.60;99.90
19397;DHT22;9834;48.076;11.878;2023-02-01T07:03:47;3.60;99.90
19397;DHT22;9834;48.076;11.878;2023-02-01T07:06:15;3.60;99.90
19397;DHT22;9834;48.076;11.878;2023-02-01T07:08:42;3.60;99.90
19397;DHT22;9834;48.076;11.878;2023-02-01T07:11:10;3.70;99.90
19397;DHT22;9834;48.076;11.878;2023-02-01T07:13:38;3.60;99.90
19397;DHT22;9834;48.076;11.878;2023-02-01T07:16:08;3.60;99.90
19397;DHT22;9834;48.076;11.878;2023-02-01T07:18:37;3.70;99.90
19397;DHT22;9834;48.076;11.878;2023-02-01T07:21:04;3.70;99.90
19397;DHT22;9834;48.076;11.878;2023-02-01T07:23:31;3.80;99.90
19397;DHT22;9834;48.076;11.878;2023-02-01T07:26:00;3.80;99.90
19397;DHT22;9834;48.076;11.878;2023-02-01T07:28:29;3.80;99.90
19397;DHT22;9834;48.076;11.878;2023-02-01T07:31:02;3.80;99.90
19397;DHT22;9834;48.076;11.878;2023-02-01T07:33:29;3.80;99.90
19397;DHT22;9834;48.076;11.878;2023-02-01T07:35:57;3.80;99.90
19397;DHT22;9834;48.076;11.878;2023-02-01T07:38:25;3.80;99.90
19397;DHT22;9834;48.076;11.878;2023-02-01T07:40:57;3.80;99.90
19397;DHT22;9834;48.076;11.878;2023-02-01T07:43:25;3.80;99.90
19397;DHT22;9834;48.076;11.878;2023-02-01T07:45:52;3.80;99.90
19397;DHT22;9834;48.076;11.878;2023-02-01T07:48:21;3.80;99.90
19397;DHT22;9834;48.076;11.878;2023-02-01T07:50:48;3.80;99.90
19397;DHT22;9834;48.076;11.878;2023-02-01T07:53:16;3.80;99.90
19397;DHT22;9834;48.076;11.878;2023-02-01T07:55:43;3.90;99.90
19397;DHT22;9834;48.076;11.878;2023-02-01T07:58:10;3.90;99.90
19397;DHT22;9834;48.076;11.878;2023-02-01T08:00:37;3.90;99.90
19397;DHT22;9834;48.076;11.878;2023-02-01T08:03:21;3.90;99.90
19397;DHT22;9834;48.076;11.878;2023-02-01T08:05:48;3.80;99.90
19397;DHT22;9834;48.076;11.878;2023-02-01T08:08:21;3.80;99.90
19397;DHT22;9834;48.076;11.878;2023-02-01T08:10:48;3.90;99.90
19397;DHT22;9834;48.076;11.878;2023-02-01T08:13:20;3.80;99.90
19397;DHT22;9834;48.076;11.878;2023-02-01T08:15:47;3.80;99.90
19397;DHT22;9834;48.076;11.878;2023-02-01T08:18:14;3.80;99.90
19397;DHT22;9834;48.076;11.878;2023-02-01T08:20:43;3.80;99.90
19397;DHT22;9834;48.076;11.878;2023-02-01T08:23:11;3.80;99.90
19397;DHT22;9834;48.076;11.878;2023-02-01T08:25:39;3.80;99.90
19397;DHT22;9834;48.076;11.878;2023-02-01T08:28:07;3.90;99.90
19397;DHT22;9834;48.076;11.878;2023-02-01T08:30:34;3.90;99.90
19397;DHT22;9834;48.076;11.878;2023-02-01T08:33:02;3.90;99.90
19397;DHT22;9834;48.076;11.878;2023-02-01T08:35:31;3.90;99.90
19397;DHT22;9834;48.076;11.878;2023-02-01T08:37:58;3.90;99.90
19397;DHT22;9834;48.076;11.878;2023-02-01T08:40:25;4.00;99.90
19397;DHT22;9834;48.076;11.878;2023-02-01T08:42:54;4.00;99.90
19397;DHT22;9834;48.076;11.878;2023-02-01T08:45:22;4.10;99.90
19397;DHT22;9834;48.076;11.878;2023-02-01T08:47:50;4.10;99.90
19397;DHT22;9834;48.076;11.878;2023-02-01T08:50:18;4.10;99.90
19397;DHT22;9834;48.076;11.878;2023-02-01T08:52:45;4.10;99.90
19397;DHT22;9834;48.076;11.878;2023-02-01T08:55:12;4.10;99.90
19397;DHT22;9834;48.076;11.878;2023-02-01T08:57:39;4.20;99.90
19397;DHT22;9834;48.076;11.878;2023-02-01T09:00:11;4.20;99.90
19397;DHT22;9834;48.076;11.878;2023-02-01T09:02:39;4.20;99.90
19397;DHT22;9834;48.076;11.878;2023-02-01T09:05:06;4.20;99.90
19397;DHT22;9834;48.076;11.878;2023-02-01T09:07:34;4.30;99.90
19397;DHT22;9834;48.076;11.878;2023-02-01T09:10:02;4.40;99.90
19397;DHT22;9834;48.076;11.878;2023-02-01T09:12:32;4.50;99.90
19397;DHT22;9834;48.076;11.878;2023-02-01T09:14:59;4.50;99.90
19397;DHT22;9834;48.076;11.878;2023-02-01T09:17:29;4.60;99.90
19397;DHT22;9834;48.076;11.878;2023-02-01T09:19:56;4.60;99.90
19397;DHT22;9834;48.076;11.878;2023-02-01T09:22:23;4.60;99.90
19397;DHT22;9834;48.076;11.878;2023-02-01T09:24:50;4.60;99.90
19397;DHT22;9834;48.076;11.878;2023-02-01T09:27:16;4.50;99.90
19397;DHT22;9834;48.076;11.878;2023-02-01T09:29:44;4.70;99.90
19397;DHT22;9834;48.076;11.878;2023-02-01T09:32:15;4.60;99.90
19397;DHT22;9834;48.076;11.878;2023-02-01T09:34:43;4.70;99.90
19397;DHT22;9834;48.076;11.878;2023-02-01T09:37:10;4.70;99.40
19397;DHT22;9834;48.076;11.878;2023-02-01T09:39:37;4.90;99.90
19397;DHT22;9834;48.076;11.878;2023-02-01T09:42:14;5.00;99.10
19397;DHT22;9834;48.076;11.878;2023-02-01T09:45:03;5.00;98.90
19397;DHT22;9834;48.076;11.878;2023-02-01T09:47:33;5.10;97.80
19397;DHT22;9834;48.076;11.878;2023-02-01T09:50:05;5.30;97.30
19397;DHT22;9834;48.076;11.878;2023-02-01T09:52:38;5.30;97.10
19397;DHT22;9834;48.076;11.878;2023-02-01T09:55:13;5.30;96.80
19397;DHT22;9834;48.076;11.878;2023-02-01T09:57:48;5.40;96.10
19397;DHT22;9834;48.076;11.878;2023-02-01T10:00:20;5.40;95.90
19397;DHT22;9834;48.076;11.878;2023-02-01T10:02:50;5.50;96.10
19397;DHT22;9834;48.076;11.878;2023-02-01T10:05:23;5.50;95.80
19397;DHT22;9834;48.076;11.878;2023-02-01T10:08:01;5.70;95.50
19397;DHT22;9834;48.076;11.878;2023-02-01T10:10:34;5.60;94.70
19397;DHT22;9834;48.076;11.878;2023-02-01T10:16:08;5.60;95.30
19397;DHT22;9834;48.076;11.878;2023-02-01T10:18:55;5.60;94.70
19397;DHT22;9834;48.076;11.878;2023-02-01T10:21:36;5.60;94.30
19397;DHT22;9834;48.076;11.878;2023-02-01T10:24:20;5.70;94.30
19397;DHT22;9834;48.076;11.878;2023-02-01T10:26:55;5.70;94.50
19397;DHT22;9834;48.076;11.878;2023-02-01T10:29:27;5.70;94.40
19397;DHT22;9834;48.076;11.878;2023-02-01T10:31:56;5.70;94.40
19397;DHT22;9834;48.076;11.878;2023-02-01T10:34:27;5.60;93.80
19397;DHT22;9834;48.076;11.878;2023-02-01T10:36:57;5.50;93.80
19397;DHT22;9834;48.076;11.878;2023-02-01T10:39:26;5.40;93.90
19397;DHT22;9834;48.076;11.878;2023-02-01T10:41:55;5.50;94.10
19397;DHT22;9834;48.076;11.878;2023-02-01T10:44:26;5.40;94.50
19397;DHT22;9834;48.076;11.878;2023-02-01T10:46:53;5.50;94.50
19397;DHT22;9834;48.076;11.878;2023-02-01T10:49:24;5.40;94.50
19397;DHT22;9834;48.076;11.878;2023-02-01T10:51:59;5.40;94.10
19397;DHT22;9834;48.076;11.878;2023-02-01T10:54:33;5.40;94.10
19397;DHT22;9834;48.076;11.878;2023-02-01T10:57:01;5.40;94.80
19397;DHT22;9834;48.076;11.878;2023-02-01T10:59:29;5.30;95.00
19397;DHT22;9834;48.076;11.878;2023-02-01T11:02:00;5.40;94.60
19397;DHT22;9834;48.076;11.878;2023-02-01T11:04:37;5.40;94.50
19397;DHT22;9834;48.076;11.878;2023-02-01T11:07:07;5.40;95.10
19397;DHT22;9834;48.076;11.878;2023-02-01T11:09:39;5.60;94.40
19397;DHT22;9834;48.076;11.878;2023-02-01T11:12:22;5.60;94.50
19397;DHT22;9834;48.076;11.878;2023-02-01T11:14:50;5.70;94.70
19397;DHT22;9834;48.076;11.878;2023-02-01T11:17:25;5.70;94.40
19397;DHT22;9834;48.076;11.878;2023-02-01T11:19:58;5.50;94.50
19397;DHT22;9834;48.076;11.878;2023-02-01T11:22:27;5.50;94.30
19397;DHT22;9834;48.076;11.878;2023-02-01T11:24:55;5.40;94.50
19397;DHT22;9834;48.076;11.878;2023-02-01T11:27:24;5.30;94.30
19397;DHT22;9834;48.076;11.878;2023-02-01T11:29:56;5.30;95.00
19397;DHT22;9834;48.076;11.878;2023-02-01T11:32:24;5.20;94.90
19397;DHT22;9834;48.076;11.878;2023-02-01T11:34:55;5.20;95.20
19397;DHT22;9834;48.076;11.878;2023-02-01T11:37:27;5.30;94.90
19397;DHT22;9834;48.076;11.878;2023-02-01T11:39:56;5.40;94.50
19397;DHT22;9834;48.076;11.878;2023-02-01T11:42:25;5.40;94.60
19397;DHT22;9834;48.076;11.878;2023-02-01T11:45:15;5.30;95.10
19397;DHT22;9834;48.076;11.878;2023-02-01T11:47:43;5.50;94.90
19397;DHT22;9834;48.076;11.878;2023-02-01T11:50:15;5.30;95.00
19397;DHT22;9834;48.076;11.878;2023-02-01T11:53:08;5.20;95.50
19397;DHT22;9834;48.076;11.878;2023-02-01T11:55:52;5.10;96.10
19397;DHT22;9834;48.076;11.878;2023-02-01T12:01:30;5.00;96.60
19397;DHT22;9834;48.076;11.878;2023-02-01T12:06:54;5.00;96.30
19397;DHT22;9834;48.076;11.878;2023-02-01T12:09:34;5.00;96.80
19397;DHT22;9834;48.076;11.878;2023-02-01T12:12:10;5.10;97.00
19397;DHT22;9834;48.076;11.878;2023-02-01T12:14:51;5.10;96.40
19397;DHT22;9834;48.076;11.878;2023-02-01T12:17:40;5.10;96.40
19397;DHT22;9834;48.076;11.878;2023-02-01T12:20:20;5.00;96.20
19397;DHT22;9834;48.076;11.878;2023-02-01T12:22:56;5.10;96.40
19397;DHT22;9834;48.076;11.878;2023-02-01T12:25:36;5.10;96.40
19397;DHT22;9834;48.076;11.878;2023-02-01T12:31:23;5.10;96.10
19397;DHT22;9834;48.076;11.878;2023-02-01T12:34:04;5.10;96.10
19397;DHT22;9834;48.076;11.878;2023-02-01T12:36:40;5.00;96.80
19397;DHT22;9834;48.076;11.878;2023-02-01T12:39:16;5.00;96.40
19397;DHT22;9834;48.076;11.878;2023-02-01T12:41:53;4.90;95.60
19397;DHT22;9834;48.076;11.878;2023-02-01T12:44:34;4.90;96.10
19397;DHT22;9834;48.076;11.878;2023-02-01T12:47:06;4.90;96.10
19397;DHT22;9834;48.076;11.878;2023-02-01T12:49:44;4.90;96.20
19397;DHT22;9834;48.076;11.878;2023-02-01T12:52:16;4.80;95.90
19397;DHT22;9834;48.076;11.878;2023-02-01T12:54:48;4.80;96.40
19397;DHT22;9834;48.076;11.878;2023-02-01T12:57:23;4.70;96.50
19397;DHT22;9834;48.076;11.878;2023-02-01T12:59:54;4.60;96.40
19397;DHT22;9834;48.076;11.878;2023-02-01T13:02:28;4.60;96.70
19397;DHT22;9834;48.076;11.878;2023-02-01T13:05:02;4.60;97.00
19397;DHT22;9834;48.076;11.878;2023-02-01T13:07:35;4.60;96.30
19397;DHT22;9834;48.076;11.878;2023-02-01T13:10:15;4.50;96.90
19397;DHT22;9834;48.076;11.878;2023-02-01T13:12:50;4.60;96.70
19397;DHT22;9834;48.076;11.878;2023-02-01T13:15:23;4.60;96.20
19397;DHT22;9834;48.076;11.878;2023-02-01T13:17:52;4.60;95.90
19397;DHT22;9834;48.076;11.878;2023-02-01T13:20:25;4.70;95.20
19397;DHT22;9834;48.076;11.878;2023-02-01T13:22:59;4.70;95.30
19397;DHT22;9834;48.076;11.878;2023-02-01T13:25:33;4.70;94.70
19397;DHT22;9834;48.076;11.878;2023-02-01T13:28:06;4.80;94.80
19397;DHT22;9834;48.076;11.878;2023-02-01T13:30:51;4.70;94.70
19397;DHT22;9834;48.076;11.878;2023-02-01T13:36:36;4.80;94.50
19397;DHT22;9834;48.076;11.878;2023-02-01T13:42:25;4.80;94.50
19397;DHT22;9834;48.076;11.878;2023-02-01T13:45:05;4.80;95.30
19397;DHT22;9834;48.076;11.878;2023-02-01T13:47:34;4.80;95.50
19397;DHT22;9834;48.076;11.878;2023-02-01T13:50:11;4.80;95.50
19397;DHT22;9834;48.076;11.878;2023-02-01T13:52:41;4.80;96.10
19397;DHT22;9834;48.076;11.878;2023-02-01T13:55:33;4.80;96.40
19397;DHT22;9834;48.076;11.878;2023-02-01T13:58:11;4.80;97.10
19397;DHT22;9834;48.076;11.878;2023-02-01T14:00:42;4.80;96.80
19397;DHT22;9834;48.076;11.878;2023-02-01T14:03:13;4.80;97.20
19397;DHT22;9834;48.076;11.878;2023-02-01T14:06:00;4.80;97.80
19397;DHT22;9834;48.076;11.878;2023-02-01T14:08:46;4.80;97.80
19397;DHT22;9834;48.076;11.878;2023-02-01T14:11:35;4.70;97.80
19397;DHT22;9834;48.076;11.878;2023-02-01T14:17:37;4.70;98.60
19397;DHT22;9834;48.076;11.878;2023-02-01T14:23:30;4.80;98.80
19397;DHT22;9834;48.076;11.878;2023-02-01T14:26:12;4.70;98.70
19397;DHT22;9834;48.076;11.878;2023-02-01T14:28:43;4.80;99.10
19397;DHT22;9834;48.076;11.878;2023-02-01T14:34:15;4.70;98.90
19397;DHT22;9834;48.076;11.878;2023-02-01T14:36:47;4.70;99.00
19397;DHT22;9834;48.076;11.878;2023-02-01T14:39:37;4.70;99.30
19397;DHT22;9834;48.076;11.878;2023-02-01T14:42:18;4.70;99.20
19397;DHT22;9834;48.076;11.878;2023-02-01T14:44:47;4.70;99.00
19397;DHT22;9834;48.076;11.878;2023-02-01T14:47:30;4.60;99.50
19397;DHT22;9834;48.076;11.878;2023-02-01T14:50:23;4.60;98.40
19397;DHT22;9834;48.076;11.878;2023-02-01T14:53:14;4.70;98.90
19397;DHT22;9834;48.076;11.878;2023-02-01T14:55:46;4.60;97.60
19397;DHT22;9834;48.076;11.878;2023-02-01T14:58:18;4.70;97.20
19397;DHT22;9834;48.076;11.878;2023-02-01T15:00:49;4.70;97.30
19397;DHT22;9834;48.076;11.878;2023-02-01T15:03:31;4.60;97.00
19397;DHT22;9834;48.076;11.878;2023-02-01T15:06:03;4.60;96.70
19397;DHT22;9834;48.076;11.878;2023-02-01T15:08:33;4.60;96.40
19397;DHT22;9834;48.076;11.878;2023-02-01T15:11:05;4.60;96.30
19397;DHT22;9834;48.076;11.878;2023-02-01T15:13:33;4.50;96.10
19397;DHT22;9834;48.076;11.878;2023-02-01T15:16:02;4.50;96.00
19397;DHT22;9834;48.076;11.878;2023-02-01T15:18:32;4.50;96.30
19397;DHT22;9834;48.076;11.878;2023-02-01T15:21:05;4.50;96.30
19397;DHT22;9834;48.076;11.878;2023-02-01T15:23:32;4.50;96.20
19397;DHT22;9834;48.076;11.878;2023-02-01T15:25:59;4.40;97.10
19397;DHT22;9834;48.076;11.878;2023-02-01T15:28:26;4.50;97.30
19397;DHT22;9834;48.076;11.878;2023-02-01T15:30:58;4.40;97.50
19397;DHT22;9834;48.076;11.878;2023-02-01T15:33:26;4.30;98.20
19397;DHT22;9834;48.076;11.878;2023-02-01T15:35:55;4.30;98.40
19397;DHT22;9834;48.076;11.878;2023-02-01T15:38:35;4.30;98.80
19397;DHT22;9834;48.076;11.878;2023-02-01T15:41:06;4.30;98.70
19397;DHT22;9834;48.076;11.878;2023-02-01T15:43:36;4.20;99.40
19397;DHT22;9834;48.076;11.878;2023-02-01T15:46:07;4.20;99.40
19397;DHT22;9834;48.076;11.878;2023-02-01T15:48:41;4.00;99.90
19397;DHT22;9834;48.076;11.878;2023-02-01T15:51:16;3.90;99.90
19397;DHT22;9834;48.076;11.878;2023-02-01T15:53:48;3.90;99.90
19397;DHT22;9834;48.076;11.878;2023-02-01T15:56:16;3.80;99.90
19397;DHT22;9834;48.076;11.878;2023-02-01T15:58:53;3.70;99.90
19397;DHT22;9834;48.076;11.878;2023-02-01T16:01:20;3.50;99.90
19397;DHT22;9834;48.076;11.878;2023-02-01T16:03:48;3.30;99.90
19397;DHT22;9834;48.076;11.878;2023-02-01T16:06:28;3.30;99.90
19397;DHT22;9834;48.076;11.878;2023-02-01T16:09:01;3.30;99.90
19397;DHT22;9834;48.076;11.878;2023-02-01T16:11:31;3.30;99.90
19397;DHT22;9834;48.076;11.878;2023-02-01T16:13:59;3.40;99.90
19397;DHT22;9834;48.076;11.878;2023-02-01T16:16:27;3.40;99.90
19397;DHT22;9834;48.076;11.878;2023-02-01T16:18:54;3.50;99.90
19397;DHT22;9834;48.076;11.878;2023-02-01T16:21:21;3.50;99.90
19397;DHT22;9834;48.076;11.878;2023-02-01T16:23:49;3.50;99.90
19397;DHT22;9834;48.076;11.878;2023-02-01T16:26:18;3.50;99.90
19397;DHT22;9834;48.076;11.878;2023-02-01T16:28:46;3.50;99.90
19397;DHT22;9834;48.076;11.878;2023-02-01T16:31:15;3.50;99.90
19397;DHT22;9834;48.076;11.878;2023-02-01T16:33:46;3.60;99.90
19397;DHT22;9834;48.076;11.878;2023-02-01T16:36:16;3.60;99.90
19397;DHT22;9834;48.076;11.878;2023-02-01T16:38:43;3.60;99.90
19397;DHT22;9834;48.076;11.878;2023-02-01T16:41:13;3.60;99.90
19397;DHT22;9834;48.076;11.878;2023-02-01T16:43:42;3.70;99.90